sensor_id;sensor_type;location;lat;lon;timestamp;temperature;humidity
6146;DHT22;3104;50.348;7.620;2023-01-19T00:01:24;2.00;99.90
6146;DHT22;3104;50.348;7.620;2023-01-19T00:03:50;2.10;99.90
6146;DHT22;3104;50.348;7.620;2023-01-19T00:06:16;1.90;99.90
6146;DHT22;3104;50.348;7.620;2023-01-19T00:08:42;1.90;99.90
6146;DHT22;3104;50.348;7.620;2023-01-19T00:11:12;1.80;99.90
6146;DHT22;3104;50.348;7.620;2023-01-19T00:13:39;1.90;99.90
6146;DHT22;3104;50.348;7.620;2023-01-19T00:16:05;1.50;99.90
6146;DHT22;3104;50.348;7.620;2023-01-19T00:18:31;1.80;99.90
6146;DHT22;3104;50.348;7.620;2023-01-19T00:20:57;1.50;99.90
6146;DHT22;3104;50.348;7.620;2023-01-19T00:23:23;1.20;99.90
6146;DHT22;3104;50.348;7.620;2023-01-19T00:25:48;1.30;99.90
6146;DHT22;3104;50.348;7.620;2023-01-19T00:28:16;1.10;99.90
6146;DHT22;3104;50.348;7.620;2023-01-19T00:30:43;1.20;99.90
6146;DHT22;3104;50.348;7.620;2023-01-19T00:33:10;1.60;99.90
6146;DHT22;3104;50.348;7.620;2023-01-19T00:35:38;1.50;99.90
6146;DHT22;3104;50.348;7.620;2023-01-19T00:38:07;1.50;99.90
6146;DHT22;3104;50.348;7.620;2023-01-19T00:40:32;1.30;99.90
6146;DHT22;3104;50.348;7.620;2023-01-19T00:42:58;1.80;99.90
6146;DHT22;3104;50.348;7.620;2023-01-19T00:45:24;1.70;99.90
6146;DHT22;3104;50.348;7.620;2023-01-19T00:47:50;1.80;99.90
6146;DHT22;3104;50.348;7.620;2023-01-19T00:50:22;1.90;99.90
6146;DHT22;3104;50.348;7.620;2023-01-19T00:52:48;2.00;99.90
6146;DHT22;3104;50.348;7.620;2023-01-19T00:55:15;1.60;99.90
6146;DHT22;3104;50.348;7.620;2023-01-19T00:57:41;1.90;99.90
6146;DHT22;3104;50.348;7.620;2023-01-19T01:00:15;2.10;99.90
6146;DHT22;3104;50.348;7.620;2023-01-19T01:02:42;2.50;99.90
6146;DHT22;3104;50.348;7.620;2023-01-19T01:05:09;2.30;99.90
6146;DHT22;3104;50.348;7.620;2023-01-19T01:07:35;2.30;99.90
6146;DHT22;3104;50.348;7.620;2023-01-19T01:10:07;2.30;99.90
6146;DHT22;3104;50.348;7.620;2023-01-19T01:12:34;2.30;99.90
6146;DHT22;3104;50.348;7.620;2023-01-19T01:14:59;2.50;99.90
6146;DHT22;3104;50.348;7.620;2023-01-19T01:17:25;2.50;99.90
6146;DHT22;3104;50.348;7.620;2023-01-19T01:19:51;2.40;99.90
6146;DHT22;3104;50.348;7.620;2023-01-19T01:22:17;2.20;99.90
6146;DHT22;3104;50.348;7.620;2023-01-19T01:24:43;2.20;99.90
6146;DHT22;3104;50.348;7.620;2023-01-19T01:27:18;2.50;99.90
6146;DHT22;3104;50.348;7.620;2023-01-19T01:29:43;2.20;99.90
6146;DHT22;3104;50.348;7.620;2023-01-19T01:32:13;2.00;99.90
6146;DHT22;3104;50.348;7.620;2023-01-19T01:34:39;2.10;99.90
6146;DHT22;3104;50.348;7.620;2023-01-19T01:37:05;2.10;99.90
6146;DHT22;3104;50.348;7.620;2023-01-19T01:39:34;2.10;99.90
6146;DHT22;3104;50.348;7.620;2023-01-19T01:42:02;1.90;99.90
6146;DHT22;3104;50.348;7.620;2023-01-19T01:44:45;2.00;99.90
6146;DHT22;3104;50.348;7.620;2023-01-19T01:47:41;2.40;99.90
6146;DHT22;3104;50.348;7.620;2023-01-19T01:50:24;2.20;99.90
6146;DHT22;3104;50.348;7.620;2023-01-19T01:53:03;2.30;99.90
6146;DHT22;3104;50.348;7.620;2023-01-19T01:55:30;2.20;99.90
6146;DHT22;3104;50.348;7.620;2023-01-19T01:58:02;2.00;99.90
6146;DHT22;3104;50.348;7.620;2023-01-19T02:00:28;2.40;99.90
6146;DHT22;3104;50.348;7.620;2023-01-19T02:03:15;2.40;99.90
6146;DHT22;3104;50.348;7.620;2023-01-19T02:05:41;2.40;99.90
6146;DHT22;3104;50.348;7.620;2023-01-19T02:08:17;2.30;99.90
6146;DHT22;3104;50.348;7.620;2023-01-19T02:11:03;2.20;99.90
6146;DHT22;3104;50.348;7.620;2023-01-19T02:13:47;2.30;99.90
6146;DHT22;3104;50.348;7.620;2023-01-19T02:16:14;2.10;99.90
6146;DHT22;3104;50.348;7.620;2023-01-19T02:18:40;2.20;99.90
6146;DHT22;3104;50.348;7.620;2023-01-19T02:23:55;2.10;99.90
6146;DHT22;3104;50.348;7.620;2023-01-19T02:26:27;2.20;99.90
6146;DHT22;3104;50.348;7.620;2023-01-19T02:29:15;2.10;99.90
6146;DHT22;3104;50.348;7.620;2023-01-19T02:31:42;2.20;99.90
6146;DHT22;3104;50.348;7.620;2023-01-19T02:34:12;2.10;99.90
6146;DHT22;3104;50.348;7.620;2023-01-19T02:37:00;2.20;99.90
6146;DHT22;3104;50.348;7.620;2023-01-19T02:40:13;2.30;99.90
6146;DHT22;3104;50.348;7.620;2023-01-19T02:42:28;2.40;99.90
6146;DHT22;3104;50.348;7.620;2023-01-19T02:44:56;2.30;99.90
6146;DHT22;3104;50.348;7.620;2023-01-19T02:47:22;2.20;99.90
6146;DHT22;3104;50.348;7.620;2023-01-19T02:49:58;2.30;99.90
6146;DHT22;3104;50.348;7.620;2023-01-19T02:52:24;2.30;99.90
6146;DHT22;3104;50.348;7.620;2023-01-19T03:00:40;2.30;99.90
6146;DHT22;3104;50.348;7.620;2023-01-19T03:03:38;2.30;99.90
6146;DHT22;3104;50.348;7.620;2023-01-19T03:09:18;2.30;99.90
6146;DHT22;3104;50.348;7.620;2023-01-19T03:11:51;2.20;99.90
6146;DHT22;3104;50.348;7.620;2023-01-19T03:14:21;2.10;99.90
6146;DHT22;3104;50.348;7.620;2023-01-19T03:16:53;2.20;99.90
6146;DHT22;3104;50.348;7.620;2023-01-19T03:19:47;2.20;99.90
6146;DHT22;3104;50.348;7.620;2023-01-19T03:22:27;2.30;99.90
6146;DHT22;3104;50.348;7.620;2023-01-19T03:24:55;2.20;99.90
6146;DHT22;3104;50.348;7.620;2023-01-19T03:27:32;2.30;99.90
6146;DHT22;3104;50.348;7.620;2023-01-19T03:30:10;2.20;99.90
6146;DHT22;3104;50.348;7.620;2023-01-19T03:32:42;2.10;99.90
6146;DHT22;3104;50.348;7.620;2023-01-19T03:35:12;2.10;99.90
6146;DHT22;3104;50.348;7.620;2023-01-19T03:37:42;2.10;99.90
6146;DHT22;3104;50.348;7.620;2023-01-19T03:40:10;2.10;99.90
6146;DHT22;3104;50.348;7.620;2023-01-19T03:42:36;2.20;99.90
6146;DHT22;3104;50.348;7.620;2023-01-19T03:45:03;2.10;99.90
6146;DHT22;3104;50.348;7.620;2023-01-19T03:47:29;2.10;99.90
6146;DHT22;3104;50.348;7.620;2023-01-19T03:49:55;2.00;99.90
6146;DHT22;3104;50.348;7.620;2023-01-19T03:52:30;2.00;99.90
6146;DHT22;3104;50.348;7.620;2023-01-19T03:55:00;2.00;99.90
6146;DHT22;3104;50.348;7.620;2023-01-19T03:57:26;2.00;99.90
6146;DHT22;3104;50.348;7.620;2023-01-19T03:59:53;2.20;99.90
6146;DHT22;3104;50.348;7.620;2023-01-19T04:02:19;2.20;99.90
6146;DHT22;3104;50.348;7.620;2023-01-19T04:04:44;2.00;99.90
6146;DHT22;3104;50.348;7.620;2023-01-19T04:07:10;2.00;99.90
6146;DHT22;3104;50.348;7.620;2023-01-19T04:09:36;2.20;99.90
6146;DHT22;3104;50.348;7.620;2023-01-19T04:12:01;2.10;99.90
6146;DHT22;3104;50.348;7.620;2023-01-19T04:14:28;2.00;99.90
6146;DHT22;3104;50.348;7.620;2023-01-19T04:16:53;2.00;99.90
6146;DHT22;3104;50.348;7.620;2023-01-19T04:19:19;2.00;99.90
6146;DHT22;3104;50.348;7.620;2023-01-19T04:21:47;2.10;99.90
6146;DHT22;3104;50.348;7.620;2023-01-19T04:24:13;2.10;99.90
6146;DHT22;3104;50.348;7.620;2023-01-19T04:26:39;2.10;99.90
6146;DHT22;3104;50.348;7.620;2023-01-19T04:29:04;2.10;99.90
6146;DHT22;3104;50.348;7.620;2023-01-19T04:31:30;2.20;99.90
6146;DHT22;3104;50.348;7.620;2023-01-19T04:33:56;2.00;99.90
6146;DHT22;3104;50.348;7.620;2023-01-19T04:36:21;1.90;99.90
6146;DHT22;3104;50.348;7.620;2023-01-19T04:38:47;1.90;99.90
6146;DHT22;3104;50.348;7.620;2023-01-19T04:41:13;2.00;99.90
6146;DHT22;3104;50.348;7.620;2023-01-19T04:43:39;2.10;99.90
6146;DHT22;3104;50.348;7.620;2023-01-19T04:46:05;2.20;99.90
6146;DHT22;3104;50.348;7.620;2023-01-19T04:48:31;2.10;99.90
6146;DHT22;3104;50.348;7.620;2023-01-19T04:50:57;2.10;99.90
6146;DHT22;3104;50.348;7.620;2023-01-19T04:53:22;2.00;99.90
6146;DHT22;3104;50.348;7.620;2023-01-19T04:55:52;1.90;99.90
6146;DHT22;3104;50.348;7.620;2023-01-19T04:58:19;1.90;99.90
6146;DHT22;3104;50.348;7.620;2023-01-19T05:00:44;1.90;99.90
6146;DHT22;3104;50.348;7.620;2023-01-19T05:03:10;2.00;99.90
6146;DHT22;3104;50.348;7.620;2023-01-19T05:05:36;2.00;99.90
6146;DHT22;3104;50.348;7.620;2023-01-19T05:08:02;2.10;99.90
6146;DHT22;3104;50.348;7.620;2023-01-19T05:10:27;2.20;99.90
6146;DHT22;3104;50.348;7.620;2023-01-19T05:12:53;2.10;99.90
6146;DHT22;3104;50.348;7.620;2023-01-19T05:15:19;2.10;99.90
6146;DHT22;3104;50.348;7.620;2023-01-19T05:17:44;2.00;99.90
6146;DHT22;3104;50.348;7.620;2023-01-19T05:20:11;2.00;99.90
6146;DHT22;3104;50.348;7.620;2023-01-19T05:22:36;2.10;99.90
6146;DHT22;3104;50.348;7.620;2023-01-19T05:25:04;2.10;99.90
6146;DHT22;3104;50.348;7.620;2023-01-19T05:27:42;2.10;99.90
6146;DHT22;3104;50.348;7.620;2023-01-19T05:30:09;2.10;99.90
6146;DHT22;3104;50.348;7.620;2023-01-19T05:32:35;2.20;99.90
6146;DHT22;3104;50.348;7.620;2023-01-19T05:35:10;2.20;99.90
6146;DHT22;3104;50.348;7.620;2023-01-19T05:37:42;2.20;99.90
6146;DHT22;3104;50.348;7.620;2023-01-19T05:40:09;2.30;99.90
6146;DHT22;3104;50.348;7.620;2023-01-19T05:42:35;2.30;99.90
6146;DHT22;3104;50.348;7.620;2023-01-19T05:45:01;2.30;99.90
6146;DHT22;3104;50.348;7.620;2023-01-19T05:47:30;2.20;99.90
6146;DHT22;3104;50.348;7.620;2023-01-19T05:49:56;2.20;99.90
6146;DHT22;3104;50.348;7.620;2023-01-19T05:52:21;2.30;99.90
6146;DHT22;3104;50.348;7.620;2023-01-19T05:54:49;2.30;99.90
6146;DHT22;3104;50.348;7.620;2023-01-19T05:57:16;2.40;99.90
6146;DHT22;3104;50.348;7.620;2023-01-19T05:59:42;2.40;99.90
6146;DHT22;3104;50.348;7.620;2023-01-19T06:02:07;2.30;99.90
6146;DHT22;3104;50.348;7.620;2023-01-19T06:04:33;2.30;99.90
6146;DHT22;3104;50.348;7.620;2023-01-19T06:06:59;2.40;99.90
6146;DHT22;3104;50.348;7.620;2023-01-19T06:09:26;2.40;99.90
6146;DHT22;3104;50.348;7.620;2023-01-19T06:11:52;2.30;99.90
6146;DHT22;3104;50.348;7.620;2023-01-19T06:14:19;2.40;99.90
6146;DHT22;3104;50.348;7.620;2023-01-19T06:16:45;2.30;99.90
6146;DHT22;3104;50.348;7.620;2023-01-19T06:19:11;2.20;99.90
6146;DHT22;3104;50.348;7.620;2023-01-19T06:21:36;2.20;99.90
6146;DHT22;3104;50.348;7.620;2023-01-19T06:24:02;2.30;99.90
6146;DHT22;3104;50.348;7.620;2023-01-19T06:26:28;2.30;99.90
6146;DHT22;3104;50.348;7.620;2023-01-19T06:28:54;2.30;99.90
6146;DHT22;3104;50.348;7.620;2023-01-19T06:31:19;2.30;99.90
6146;DHT22;3104;50.348;7.620;2023-01-19T06:33:45;2.40;99.90
6146;DHT22;3104;50.348;7.620;2023-01-19T06:36:11;2.50;99.90
6146;DHT22;3104;50.348;7.620;2023-01-19T06:38:37;2.50;99.90
6146;DHT22;3104;50.348;7.620;2023-01-19T06:41:02;2.40;99.90
6146;DHT22;3104;50.348;7.620;2023-01-19T06:43:29;2.40;99.90
6146;DHT22;3104;50.348;7.620;2023-01-19T06:45:56;2.40;99.90
6146;DHT22;3104;50.348;7.620;2023-01-19T06:48:22;2.40;99.90
6146;DHT22;3104;50.348;7.620;2023-01-19T06:50:48;2.40;99.90
6146;DHT22;3104;50.348;7.620;2023-01-19T06:53:15;2.50;99.90
6146;DHT22;3104;50.348;7.620;2023-01-19T06:55:44;2.50;99.90
6146;DHT22;3104;50.348;7.620;2023-01-19T06:58:10;2.50;99.90
6146;DHT22;3104;50.348;7.620;2023-01-19T07:00:36;2.50;99.90
6146;DHT22;3104;50.348;7.620;2023-01-19T07:03:02;2.50;99.90
6146;DHT22;3104;50.348;7.620;2023-01-19T07:05:30;2.50;99.90
6146;DHT22;3104;50.348;7.620;2023-01-19T07:07:56;2.40;99.90
6146;DHT22;3104;50.348;7.620;2023-01-19T07:10:23;2.30;99.90
6146;DHT22;3104;50.348;7.620;2023-01-19T07:12:49;2.30;99.90
6146;DHT22;3104;50.348;7.620;2023-01-19T07:15:16;2.30;99.90
6146;DHT22;3104;50.348;7.620;2023-01-19T07:17:42;2.40;99.90
6146;DHT22;3104;50.348;7.620;2023-01-19T07:20:09;2.40;99.90
6146;DHT22;3104;50.348;7.620;2023-01-19T07:22:37;2.40;99.90
6146;DHT22;3104;50.348;7.620;2023-01-19T07:25:03;2.40;99.90
6146;DHT22;3104;50.348;7.620;2023-01-19T07:27:29;2.50;99.90
6146;DHT22;3104;50.348;7.620;2023-01-19T07:29:55;2.40;99.90
6146;DHT22;3104;50.348;7.620;2023-01-19T07:32:21;2.50;99.90
6146;DHT22;3104;50.348;7.620;2023-01-19T07:34:46;2.60;99.90
6146;DHT22;3104;50.348;7.620;2023-01-19T07:37:12;2.50;99.90
6146;DHT22;3104;50.348;7.620;2023-01-19T07:39:37;2.50;99.90
6146;DHT22;3104;50.348;7.620;2023-01-19T07:42:03;2.60;99.90
6146;DHT22;3104;50.348;7.620;2023-01-19T07:44:28;2.60;99.90
6146;DHT22;3104;50.348;7.620;2023-01-19T07:46:54;2.60;99.90
6146;DHT22;3104;50.348;7.620;2023-01-19T07:49:20;2.70;99.90
6146;DHT22;3104;50.348;7.620;2023-01-19T07:51:45;2.70;99.90
6146;DHT22;3104;50.348;7.620;2023-01-19T07:54:11;2.60;99.90
6146;DHT22;3104;50.348;7.620;2023-01-19T07:56:37;2.80;99.90
6146;DHT22;3104;50.348;7.620;2023-01-19T07:59:02;2.80;99.90
6146;DHT22;3104;50.348;7.620;2023-01-19T08:01:28;2.80;99.90
6146;DHT22;3104;50.348;7.620;2023-01-19T08:03:54;2.50;99.90
6146;DHT22;3104;50.348;7.620;2023-01-19T08:06:23;2.50;99.90
6146;DHT22;3104;50.348;7.620;2023-01-19T08:08:49;2.50;99.90
6146;DHT22;3104;50.348;7.620;2023-01-19T08:11:15;2.50;99.90
6146;DHT22;3104;50.348;7.620;2023-01-19T08:13:41;2.40;99.90
6146;DHT22;3104;50.348;7.620;2023-01-19T08:16:07;2.40;99.90
6146;DHT22;3104;50.348;7.620;2023-01-19T08:18:36;2.30;99.90
6146;DHT22;3104;50.348;7.620;2023-01-19T08:21:08;2.30;99.90
6146;DHT22;3104;50.348;7.620;2023-01-19T08:23:33;2.30;99.90
6146;DHT22;3104;50.348;7.620;2023-01-19T08:25:59;2.30;99.90
6146;DHT22;3104;50.348;7.620;2023-01-19T08:28:25;2.20;99.90
6146;DHT22;3104;50.348;7.620;2023-01-19T08:30:51;2.20;99.90
6146;DHT22;3104;50.348;7.620;2023-01-19T08:33:23;2.30;99.90
6146;DHT22;3104;50.348;7.620;2023-01-19T08:35:51;2.30;99.90
6146;DHT22;3104;50.348;7.620;2023-01-19T08:38:17;2.30;99.90
6146;DHT22;3104;50.348;7.620;2023-01-19T08:40:43;2.40;99.90
6146;DHT22;3104;50.348;7.620;2023-01-19T08:43:11;2.40;99.90
6146;DHT22;3104;50.348;7.620;2023-01-19T08:45:39;2.40;99.90
6146;DHT22;3104;50.348;7.620;2023-01-19T08:48:13;2.40;99.90
6146;DHT22;3104;50.348;7.620;2023-01-19T08:50:39;2.40;99.90
6146;DHT22;3104;50.348;7.620;2023-01-19T08:53:04;2.50;99.90
6146;DHT22;3104;50.348;7.620;2023-01-19T08:55:36;2.60;99.90
6146;DHT22;3104;50.348;7.620;2023-01-19T08:58:03;2.40;99.90
6146;DHT22;3104;50.348;7.620;2023-01-19T09:00:30;2.70;99.90
6146;DHT22;3104;50.348;7.620;2023-01-19T09:02:56;2.70;99.90
6146;DHT22;3104;50.348;7.620;2023-01-19T09:05:22;2.60;99.90
6146;DHT22;3104;50.348;7.620;2023-01-19T09:07:48;2.80;99.90
6146;DHT22;3104;50.348;7.620;2023-01-19T09:10:14;2.80;99.90
6146;DHT22;3104;50.348;7.620;2023-01-19T09:12:41;2.70;99.90
6146;DHT22;3104;50.348;7.620;2023-01-19T09:15:08;2.80;99.90
6146;DHT22;3104;50.348;7.620;2023-01-19T09:17:35;2.90;99.90
6146;DHT22;3104;50.348;7.620;2023-01-19T09:20:01;2.90;99.90
6146;DHT22;3104;50.348;7.620;2023-01-19T09:22:26;2.90;99.90
6146;DHT22;3104;50.348;7.620;2023-01-19T09:24:52;2.90;99.90
6146;DHT22;3104;50.348;7.620;2023-01-19T09:27:17;3.00;99.90
6146;DHT22;3104;50.348;7.620;2023-01-19T09:29:43;3.00;99.90
6146;DHT22;3104;50.348;7.620;2023-01-19T09:32:17;3.00;99.90
6146;DHT22;3104;50.348;7.620;2023-01-19T09:34:42;3.00;99.90
6146;DHT22;3104;50.348;7.620;2023-01-19T09:37:08;3.00;99.90
6146;DHT22;3104;50.348;7.620;2023-01-19T09:39:34;2.80;99.90
6146;DHT22;3104;50.348;7.620;2023-01-19T09:42:07;3.00;99.90
6146;DHT22;3104;50.348;7.620;2023-01-19T09:44:39;3.10;99.90
6146;DHT22;3104;50.348;7.620;2023-01-19T09:47:16;3.10;99.90
6146;DHT22;3104;50.348;7.620;2023-01-19T09:49:46;3.10;99.90
6146;DHT22;3104;50.348;7.620;2023-01-19T09:52:13;3.00;99.90
6146;DHT22;3104;50.348;7.620;2023-01-19T09:54:48;3.00;99.90
6146;DHT22;3104;50.348;7.620;2023-01-19T09:57:17;2.80;99.90
6146;DHT22;3104;50.348;7.620;2023-01-19T09:59:43;3.00;99.90
6146;DHT22;3104;50.348;7.620;2023-01-19T10:05:28;3.10;99.90
6146;DHT22;3104;50.348;7.620;2023-01-19T10:10:51;2.70;99.90
6146;DHT22;3104;50.348;7.620;2023-01-19T10:18:56;2.70;99.90
6146;DHT22;3104;50.348;7.620;2023-01-19T10:21:23;2.90;99.90
6146;DHT22;3104;50.348;7.620;2023-01-19T10:23:57;2.70;99.90
6146;DHT22;3104;50.348;7.620;2023-01-19T10:26:32;2.70;99.90
6146;DHT22;3104;50.348;7.620;2023-01-19T10:29:05;2.70;99.90
6146;DHT22;3104;50.348;7.620;2023-01-19T10:31:33;2.60;99.90
6146;DHT22;3104;50.348;7.620;2023-01-19T10:34:00;2.60;99.90
6146;DHT22;3104;50.348;7.620;2023-01-19T10:36:35;2.60;99.90
6146;DHT22;3104;50.348;7.620;2023-01-19T10:39:04;2.70;99.90
6146;DHT22;3104;50.348;7.620;2023-01-19T10:41:42;2.90;99.90
6146;DHT22;3104;50.348;7.620;2023-01-19T10:44:09;3.00;99.90
6146;DHT22;3104;50.348;7.620;2023-01-19T10:46:46;2.90;99.90
6146;DHT22;3104;50.348;7.620;2023-01-19T10:49:35;2.90;99.90
6146;DHT22;3104;50.348;7.620;2023-01-19T10:52:02;2.80;99.90
6146;DHT22;3104;50.348;7.620;2023-01-19T10:54:30;2.70;99.90
6146;DHT22;3104;50.348;7.620;2023-01-19T10:57:00;2.80;99.90
6146;DHT22;3104;50.348;7.620;2023-01-19T10:59:45;2.90;99.90
6146;DHT22;3104;50.348;7.620;2023-01-19T11:02:22;2.80;99.90
6146;DHT22;3104;50.348;7.620;2023-01-19T11:04:52;2.80;99.90
6146;DHT22;3104;50.348;7.620;2023-01-19T11:09:46;2.90;99.90
6146;DHT22;3104;50.348;7.620;2023-01-19T11:12:17;2.90;99.90
6146;DHT22;3104;50.348;7.620;2023-01-19T11:14:43;3.00;99.90
6146;DHT22;3104;50.348;7.620;2023-01-19T11:17:18;2.90;99.90
6146;DHT22;3104;50.348;7.620;2023-01-19T11:19:56;3.10;99.90
6146;DHT22;3104;50.348;7.620;2023-01-19T11:22:27;3.40;99.90
6146;DHT22;3104;50.348;7.620;2023-01-19T11:24:57;3.20;99.90
6146;DHT22;3104;50.348;7.620;2023-01-19T11:27:23;3.20;99.90
6146;DHT22;3104;50.348;7.620;2023-01-19T11:29:59;3.20;99.90
6146;DHT22;3104;50.348;7.620;2023-01-19T11:32:26;3.30;99.90
6146;DHT22;3104;50.348;7.620;2023-01-19T11:34:52;3.50;99.90
6146;DHT22;3104;50.348;7.620;2023-01-19T11:39:48;3.40;99.90
6146;DHT22;3104;50.348;7.620;2023-01-19T11:42:15;3.20;99.90
6146;DHT22;3104;50.348;7.620;2023-01-19T11:45:02;3.50;99.90
6146;DHT22;3104;50.348;7.620;2023-01-19T11:47:54;3.50;99.90
6146;DHT22;3104;50.348;7.620;2023-01-19T11:50:30;3.40;99.90
6146;DHT22;3104;50.348;7.620;2023-01-19T11:57:56;3.60;99.90
6146;DHT22;3104;50.348;7.620;2023-01-19T12:02:56;3.60;99.90
6146;DHT22;3104;50.348;7.620;2023-01-19T12:05:28;3.70;99.90
6146;DHT22;3104;50.348;7.620;2023-01-19T12:07:54;3.50;99.90
6146;DHT22;3104;50.348;7.620;2023-01-19T12:10:32;3.60;99.90
6146;DHT22;3104;50.348;7.620;2023-01-19T12:13:02;3.70;99.90
6146;DHT22;3104;50.348;7.620;2023-01-19T12:15:40;3.80;99.90
6146;DHT22;3104;50.348;7.620;2023-01-19T12:18:15;3.80;99.90
6146;DHT22;3104;50.348;7.620;2023-01-19T12:20:53;4.00;99.90
6146;DHT22;3104;50.348;7.620;2023-01-19T12:28:17;4.20;99.90
6146;DHT22;3104;50.348;7.620;2023-01-19T12:30:44;4.20;99.90
6146;DHT22;3104;50.348;7.620;2023-01-19T12:38:38;4.00;99.90
6146;DHT22;3104;50.348;7.620;2023-01-19T12:46:34;4.10;99.90
6146;DHT22;3104;50.348;7.620;2023-01-19T12:49:27;4.40;99.90
6146;DHT22;3104;50.348;7.620;2023-01-19T13:02:54;4.90;99.90
6146;DHT22;3104;50.348;7.620;2023-01-19T13:14:28;5.50;99.90
6146;DHT22;3104;50.348;7.620;2023-01-19T13:19:00;5.30;99.90
6146;DHT22;3104;50.348;7.620;2023-01-19T13:21:41;5.00;99.90
6146;DHT22;3104;50.348;7.620;2023-01-19T13:24:18;5.10;99.90
6146;DHT22;3104;50.348;7.620;2023-01-19T13:29:24;4.90;99.90
6146;DHT22;3104;50.348;7.620;2023-01-19T13:31:51;4.90;99.90
6146;DHT22;3104;50.348;7.620;2023-01-19T13:34:22;5.00;99.90
6146;DHT22;3104;50.348;7.620;2023-01-19T13:36:51;4.90;99.90
6146;DHT22;3104;50.348;7.620;2023-01-19T13:41:55;4.80;99.90
6146;DHT22;3104;50.348;7.620;2023-01-19T13:44:23;4.70;99.90
6146;DHT22;3104;50.348;7.620;2023-01-19T13:46:50;5.00;99.90
6146;DHT22;3104;50.348;7.620;2023-01-19T13:54:31;5.40;99.90
6146;DHT22;3104;50.348;7.620;2023-01-19T13:56:57;5.00;99.90
6146;DHT22;3104;50.348;7.620;2023-01-19T13:59:23;4.90;99.90
6146;DHT22;3104;50.348;7.620;2023-01-19T14:01:48;4.80;99.90
6146;DHT22;3104;50.348;7.620;2023-01-19T14:04:25;4.90;99.90
6146;DHT22;3104;50.348;7.620;2023-01-19T14:06:51;5.00;99.90
6146;DHT22;3104;50.348;7.620;2023-01-19T14:09:20;4.90;99.90
6146;DHT22;3104;50.348;7.620;2023-01-19T14:14:45;4.80;99.90
6146;DHT22;3104;50.348;7.620;2023-01-19T14:17:21;4.80;99.90
6146;DHT22;3104;50.348;7.620;2023-01-19T14:19:52;4.70;99.90
6146;DHT22;3104;50.348;7.620;2023-01-19T14:22:18;4.80;99.90
6146;DHT22;3104;50.348;7.620;2023-01-19T14:24:43;5.00;99.90
6146;DHT22;3104;50.348;7.620;2023-01-19T14:27:23;5.10;99.90
6146;DHT22;3104;50.348;7.620;2023-01-19T14:29:50;5.00;99.90
6146;DHT22;3104;50.348;7.620;2023-01-19T14:32:24;5.00;99.90
6146;DHT22;3104;50.348;7.620;2023-01-19T14:37:34;5.10;99.90
6146;DHT22;3104;50.348;7.620;2023-01-19T14:40:19;5.00;99.90
6146;DHT22;3104;50.348;7.620;2023-01-19T14:42:57;4.90;99.90
6146;DHT22;3104;50.348;7.620;2023-01-19T14:45:37;4.80;99.90
6146;DHT22;3104;50.348;7.620;2023-01-19T14:48:06;5.00;99.90
6146;DHT22;3104;50.348;7.620;2023-01-19T14:50:39;5.00;99.90
6146;DHT22;3104;50.348;7.620;2023-01-19T14:53:06;5.10;99.90
6146;DHT22;3104;50.348;7.620;2023-01-19T14:55:48;5.10;99.90
6146;DHT22;3104;50.348;7.620;2023-01-19T14:58:16;4.80;99.90
6146;DHT22;3104;50.348;7.620;2023-01-19T15:00:43;4.90;99.90
6146;DHT22;3104;50.348;7.620;2023-01-19T15:03:09;4.80;99.90
6146;DHT22;3104;50.348;7.620;2023-01-19T15:05:39;4.80;99.90
6146;DHT22;3104;50.348;7.620;2023-01-19T15:08:06;4.90;99.90
6146;DHT22;3104;50.348;7.620;2023-01-19T15:10:32;5.00;99.90
6146;DHT22;3104;50.348;7.620;2023-01-19T15:12:59;4.90;99.90
6146;DHT22;3104;50.348;7.620;2023-01-19T15:15:31;4.80;99.90
6146;DHT22;3104;50.348;7.620;2023-01-19T15:17:58;4.80;99.90
6146;DHT22;3104;50.348;7.620;2023-01-19T15:20:25;4.70;99.90
6146;DHT22;3104;50.348;7.620;2023-01-19T15:22:51;4.60;99.90
6146;DHT22;3104;50.348;7.620;2023-01-19T15:25:19;4.60;99.90
6146;DHT22;3104;50.348;7.620;2023-01-19T15:27:45;4.50;99.90
6146;DHT22;3104;50.348;7.620;2023-01-19T15:30:19;4.50;99.90
6146;DHT22;3104;50.348;7.620;2023-01-19T15:32:45;4.50;99.90
6146;DHT22;3104;50.348;7.620;2023-01-19T15:35:15;4.50;99.90
6146;DHT22;3104;50.348;7.620;2023-01-19T15:37:40;4.50;99.90
6146;DHT22;3104;50.348;7.620;2023-01-19T15:40:07;4.50;99.90
6146;DHT22;3104;50.348;7.620;2023-01-19T15:42:33;4.50;99.90
6146;DHT22;3104;50.348;7.620;2023-01-19T15:44:58;4.40;99.90
6146;DHT22;3104;50.348;7.620;2023-01-19T15:47:24;4.50;99.90
6146;DHT22;3104;50.348;7.620;2023-01-19T15:49:49;4.30;99.90
6146;DHT22;3104;50.348;7.620;2023-01-19T15:52:15;4.40;99.90
6146;DHT22;3104;50.348;7.620;2023-01-19T15:54:40;4.50;99.90
6146;DHT22;3104;50.348;7.620;2023-01-19T15:57:07;4.50;99.90
6146;DHT22;3104;50.348;7.620;2023-01-19T15:59:32;4.30;99.90
6146;DHT22;3104;50.348;7.620;2023-01-19T16:01:58;4.40;99.90
6146;DHT22;3104;50.348;7.620;2023-01-19T16:04:23;4.30;99.90
6146;DHT22;3104;50.348;7.620;2023-01-19T16:06:49;4.30;99.90
6146;DHT22;3104;50.348;7.620;2023-01-19T16:09:15;4.30;99.90
6146;DHT22;3104;50.348;7.620;2023-01-19T16:11:43;4.50;99.90
6146;DHT22;3104;50.348;7.620;2023-01-19T16:14:08;4.40;99.90
6146;DHT22;3104;50.348;7.620;2023-01-19T16:16:34;4.40;99.90
6146;DHT22;3104;50.348;7.620;2023-01-19T16:19:00;4.70;99.90
6146;DHT22;3104;50.348;7.620;2023-01-19T16:21:26;4.50;99.90
6146;DHT22;3104;50.348;7.620;2023-01-19T16:23:52;4.50;99.90
6146;DHT22;3104;50.348;7.620;2023-01-19T16:28:51;4.20;99.90
6146;DHT22;3104;50.348;7.620;2023-01-19T16:31:17;4.00;99.90
6146;DHT22;3104;50.348;7.620;2023-01-19T16:33:44;4.00;99.90
6146;DHT22;3104;50.348;7.620;2023-01-19T16:36:31;4.20;99.90
6146;DHT22;3104;50.348;7.620;2023-01-19T16:38:59;4.30;99.90
6146;DHT22;3104;50.348;7.620;2023-01-19T16:41:25;4.40;99.90
6146;DHT22;3104;50.348;7.620;2023-01-19T16:43:52;4.30;99.90
6146;DHT22;3104;50.348;7.620;2023-01-19T16:46:27;4.20;99.90
6146;DHT22;3104;50.348;7.620;2023-01-19T16:48:58;4.30;99.90
6146;DHT22;3104;50.348;7.620;2023-01-19T16:51:24;4.30;99.90
6146;DHT22;3104;50.348;7.620;2023-01-19T16:53:49;3.90;99.90
6146;DHT22;3104;50.348;7.620;2023-01-19T16:56:15;4.00;99.90
6146;DHT22;3104;50.348;7.620;2023-01-19T16:58:42;4.10;99.90
6146;DHT22;3104;50.348;7.620;2023-01-19T17:01:09;4.10;99.90
6146;DHT22;3104;50.348;7.620;2023-01-19T17:03:35;4.10;99.90
6146;DHT22;3104;50.348;7.620;2023-01-19T17:06:03;4.20;99.90
6146;DHT22;3104;50.348;7.620;2023-01-19T17:08:29;4.10;99.90
6146;DHT22;3104;50.348;7.620;2023-01-19T17:10:55;3.70;99.90
6146;DHT22;3104;50.348;7.620;2023-01-19T17:13:21;3.80;99.90
6146;DHT22;3104;50.348;7.620;2023-01-19T17:15:46;3.80;99.90
6146;DHT22;3104;50.348;7.620;2023-01-19T17:18:12;3.90;99.90
6146;DHT22;3104;50.348;7.620;2023-01-19T17:20:37;3.80;99.90
6146;DHT22;3104;50.348;7.620;2023-01-19T17:23:03;3.60;99.90
6146;DHT22;3104;50.348;7.620;2023-01-19T17:25:29;3.70;99.90
6146;DHT22;3104;50.348;7.620;2023-01-19T17:27:54;3.80;99.90
6146;DHT22;3104;50.348;7.620;2023-01-19T17:30:20;3.70;99.90
6146;DHT22;3104;50.348;7.620;2023-01-19T17:32:45;3.20;99.90
6146;DHT22;3104;50.348;7.620;2023-01-19T17:35:11;3.30;99.90
6146;DHT22;3104;50.348;7.620;2023-01-19T17:37:37;3.50;99.90
6146;DHT22;3104;50.348;7.620;2023-01-19T17:40:02;3.60;99.90
6146;DHT22;3104;50.348;7.620;2023-01-19T17:42:28;3.70;99.90
6146;DHT22;3104;50.348;7.620;2023-01-19T17:44:54;3.40;99.90
6146;DHT22;3104;50.348;7.620;2023-01-19T17:47:19;3.30;99.90
6146;DHT22;3104;50.348;7.620;2023-01-19T17:49:49;3.70;99.90
6146;DHT22;3104;50.348;7.620;2023-01-19T17:52:15;3.60;99.90
6146;DHT22;3104;50.348;7.620;2023-01-19T17:54:41;3.50;99.90
6146;DHT22;3104;50.348;7.620;2023-01-19T17:57:06;3.30;99.90
6146;DHT22;3104;50.348;7.620;2023-01-19T17:59:32;3.30;99.90